Terminal Aerodrome Forecast
Issued by NWS

Home | Current Version | Previous Version | Text Only | Print | Product List | Glossary On
Versions: 1 2 3 4 5 6 7 8 9 10 11 12 13 14 15 16 17
000
FTUS46 KOTX 212108 AAA
TAFSFF
TAF AMD
KSFF 212108Z 2121/2218 10005KT P6SM -RA SCT030 OVC040
     FM212300 21010KT P6SM -RA OVC025
     FM220300 21004KT 6SM -RA OVC015
     FM220800 21008KT P6SM -RA OVC040 WS015/22050KT
     FM221500 22014G24KT P6SM -SHRA BKN040 OVC070=

USA.gov is the U.S. government's official web portal to all federal, state and local government web resources and services.